Austin, TX (78746)

01:44 CDT le 02 septembre 2014 (GMT -0500)
Camelot | Change Station
CLOSE
Current Station
Stations météorologiques personnelles
Location: Austin, TX
Altitude: 925 ft
Stations météo à proximité

Alt. 925 ft 30.29 °N, 97.83 °W | Updated 1 second ago

Partly Cloudy
Partiellement nuageux
78.8 ° F
Paraît 82 ° F
N
3.0
Vent Variable Vent de SO
Gusts 4.0 mph

Aujourd'hui
Haut(e) -- | Bas -- ° F
--% Risque de précip.
Hier
Haut(e) -- | Bas -- ° F
Precip. -- pouce
7:08 AM 7:52 PM
Lune montante, 48% visible
Pression 29.90 pouce
Visibilité 10.0 Miles terrestres
Nuages Peu 2200 ft
indice de chaleur 82 ° F
Point de rosée 73 ° F
Humidité 83%
Précipitations 0.00 pouce
Profondeur de la couche neigeuse Non disponible.
UV 0 sur 12
Pollen 8.50 sur 12
Ozone Bon
PM2.5 Bon
Flu Activity Non disponible.
METAR KATT 020551Z AUTO 15007G15KT 10SM FEW022 27/23 A2994 RMK AO2 SLP123 T02720228 10344 20272 403830256 51010

More Conditions Fewer Conditions

Pression 29.90 pouce
Visibilité 10.0 Miles terrestres
Nuages Peu 2200 ft
indice de chaleur 82 ° F
Point de rosée 73 ° F
Humidité 83%
Précipitations 0.00 pouce
Profondeur de la couche neigeuse Non disponible.
UV 0 sur 12
Pollen 8.50 sur 12
Ozone Bon
PM2.5 Bon
Flu Activity Non disponible.
METAR KATT 020551Z AUTO 15007G15KT 10SM FEW022 27/23 A2994 RMK AO2 SLP123 T02720228 10344 20272 403830256 51010

More Conditions Fewer Conditions

10-Day Weather Forecast

Almanac

Astronomie

Sep. 02, 2014 Lever Coucher
Temps réel 07:08 CDT 19:52 CDT
Crépuscule civil 06:44 CDT 20:17 CDT
Crépuscule nautique 06:15 CDT 20:45 CDT
Crépuscule astronomique 05:46 CDT 21:15 CDT
Lune 14:24 CDT 00:24 CDT
Durée de lumière visible 13h 32m
Longueur du jour
12h 44m
Tomorrow will be 1m 45s shorter.
Lune montante, 48% of the Moon is Illuminated
Aujourd'hui
Lune montante
Sep 2
Premier quartier
Sep 8
Pleine lune
Sep 15
Dernier quartier
Sep 24
Nouveau

Extrêmes aujourd'hui

State Highs State Lows

Community

WunderPhotos

Upload Photos

1,749,589 Photos téléchargées !

WunderBlogs® & News

Nearby

Qualité de l'air

  Qualité de l'air Indice de la qualité de l'air Polluant
Hier Bon
PM2.5
Hier Bon
OZONE
Actuel Bon
PM2.5
Actuel Bon
OZONE
mardi Bon
OZONE
mardi Bon
PM10
mercredi Bon
OZONE
mercredi Bon
PM10
jeudi Bon
OZONE
jeudi Bon
PM10

Épaisseur de neige

Station Depth Altitude
Pas de nouvelles chutes de neige

Activité sismique

Ville Distance Mag. Time & Date
No recent earthquake activity has been reported nearby.
Minimum magnitude displayed is 2.5.

Températures des eaux côtières

Lieu Température
Aucun rapport de station

Stations météo à proximité